sensor_id;sensor_type;location;lat;lon;timestamp;P1;durP1;ratioP1;P2;durP2;ratioP2
21675;SDS011;10999;51.332;9.458;2023-06-22T00:01:19;16.90;;;9.68;;
21675;SDS011;10999;51.332;9.458;2023-06-22T00:03:51;18.00;;;10.52;;
21675;SDS011;10999;51.332;9.458;2023-06-22T00:06:22;17.63;;;9.95;;
21675;SDS011;10999;51.332;9.458;2023-06-22T00:08:49;16.95;;;10.65;;
21675;SDS011;10999;51.332;9.458;2023-06-22T00:11:15;19.95;;;11.63;;
21675;SDS011;10999;51.332;9.458;2023-06-22T00:13:42;20.27;;;12.63;;
21675;SDS011;10999;51.332;9.458;2023-06-22T00:16:09;20.15;;;11.40;;
21675;SDS011;10999;51.332;9.458;2023-06-22T00:18:36;18.30;;;10.52;;
21675;SDS011;10999;51.332;9.458;2023-06-22T00:21:03;18.20;;;11.13;;
21675;SDS011;10999;51.332;9.458;2023-06-22T00:23:30;14.70;;;8.88;;
21675;SDS011;10999;51.332;9.458;2023-06-22T00:26:00;13.68;;;8.35;;
21675;SDS011;10999;51.332;9.458;2023-06-22T00:28:27;13.55;;;8.15;;
21675;SDS011;10999;51.332;9.458;2023-06-22T00:30:55;18.98;;;11.40;;
21675;SDS011;10999;51.332;9.458;2023-06-22T00:33:22;18.25;;;11.80;;
21675;SDS011;10999;51.332;9.458;2023-06-22T00:35:49;14.70;;;9.23;;
21675;SDS011;10999;51.332;9.458;2023-06-22T00:38:18;16.52;;;10.15;;
21675;SDS011;10999;51.332;9.458;2023-06-22T00:40:47;16.30;;;9.85;;
21675;SDS011;10999;51.332;9.458;2023-06-22T00:43:13;13.88;;;8.27;;
21675;SDS011;10999;51.332;9.458;2023-06-22T00:45:40;14.85;;;9.13;;
21675;SDS011;10999;51.332;9.458;2023-06-22T00:48:07;14.68;;;9.05;;
21675;SDS011;10999;51.332;9.458;2023-06-22T00:50:34;19.83;;;10.65;;
21675;SDS011;10999;51.332;9.458;2023-06-22T00:53:06;15.52;;;10.02;;
21675;SDS011;10999;51.332;9.458;2023-06-22T00:55:38;15.40;;;8.73;;
21675;SDS011;10999;51.332;9.458;2023-06-22T00:58:17;13.48;;;8.32;;
21675;SDS011;10999;51.332;9.458;2023-06-22T01:00:48;17.08;;;9.50;;
21675;SDS011;10999;51.332;9.458;2023-06-22T01:03:15;14.93;;;9.02;;
21675;SDS011;10999;51.332;9.458;2023-06-22T01:05:43;16.30;;;8.52;;
21675;SDS011;10999;51.332;9.458;2023-06-22T01:08:31;13.63;;;8.52;;
21675;SDS011;10999;51.332;9.458;2023-06-22T01:13:50;14.52;;;8.80;;
21675;SDS011;10999;51.332;9.458;2023-06-22T01:16:35;13.68;;;8.23;;
21675;SDS011;10999;51.332;9.458;2023-06-22T01:19:53;16.58;;;9.32;;
21675;SDS011;10999;51.332;9.458;2023-06-22T01:22:00;16.17;;;9.30;;
21675;SDS011;10999;51.332;9.458;2023-06-22T01:24:41;16.83;;;10.02;;
21675;SDS011;10999;51.332;9.458;2023-06-22T01:30:03;22.40;;;11.38;;
21675;SDS011;10999;51.332;9.458;2023-06-22T01:32:33;18.77;;;10.20;;
21675;SDS011;10999;51.332;9.458;2023-06-22T01:35:01;16.70;;;10.18;;
21675;SDS011;10999;51.332;9.458;2023-06-22T01:37:32;21.10;;;11.27;;
21675;SDS011;10999;51.332;9.458;2023-06-22T01:40:00;15.50;;;8.60;;
21675;SDS011;10999;51.332;9.458;2023-06-22T01:42:29;16.70;;;10.63;;
21675;SDS011;10999;51.332;9.458;2023-06-22T01:44:56;18.33;;;10.85;;
21675;SDS011;10999;51.332;9.458;2023-06-22T01:47:24;21.63;;;11.48;;
21675;SDS011;10999;51.332;9.458;2023-06-22T01:49:51;20.20;;;11.93;;
21675;SDS011;10999;51.332;9.458;2023-06-22T01:52:19;22.38;;;12.07;;
21675;SDS011;10999;51.332;9.458;2023-06-22T01:54:47;21.80;;;11.95;;
21675;SDS011;10999;51.332;9.458;2023-06-22T01:57:14;18.40;;;11.40;;
21675;SDS011;10999;51.332;9.458;2023-06-22T01:59:45;16.33;;;9.27;;
21675;SDS011;10999;51.332;9.458;2023-06-22T02:02:23;16.05;;;9.23;;
21675;SDS011;10999;51.332;9.458;2023-06-22T02:04:57;16.35;;;8.98;;
21675;SDS011;10999;51.332;9.458;2023-06-22T02:07:31;19.52;;;11.60;;
21675;SDS011;10999;51.332;9.458;2023-06-22T02:10:00;17.50;;;10.15;;
21675;SDS011;10999;51.332;9.458;2023-06-22T02:12:30;18.48;;;11.57;;
21675;SDS011;10999;51.332;9.458;2023-06-22T02:14:58;15.75;;;8.65;;
21675;SDS011;10999;51.332;9.458;2023-06-22T02:17:27;16.38;;;10.15;;
21675;SDS011;10999;51.332;9.458;2023-06-22T02:19:54;15.95;;;9.48;;
21675;SDS011;10999;51.332;9.458;2023-06-22T02:22:21;14.23;;;8.30;;
21675;SDS011;10999;51.332;9.458;2023-06-22T02:24:48;19.83;;;11.30;;
21675;SDS011;10999;51.332;9.458;2023-06-22T02:27:14;15.35;;;9.48;;
21675;SDS011;10999;51.332;9.458;2023-06-22T02:29:41;15.10;;;9.23;;
21675;SDS011;10999;51.332;9.458;2023-06-22T02:32:08;18.02;;;10.95;;
21675;SDS011;10999;51.332;9.458;2023-06-22T02:34:35;15.50;;;9.13;;
21675;SDS011;10999;51.332;9.458;2023-06-22T02:37:03;18.50;;;10.43;;
21675;SDS011;10999;51.332;9.458;2023-06-22T02:39:30;16.88;;;10.00;;
21675;SDS011;10999;51.332;9.458;2023-06-22T02:41:56;16.58;;;9.80;;
21675;SDS011;10999;51.332;9.458;2023-06-22T02:44:23;14.95;;;9.27;;
21675;SDS011;10999;51.332;9.458;2023-06-22T02:46:50;15.70;;;9.70;;
21675;SDS011;10999;51.332;9.458;2023-06-22T02:49:17;14.13;;;8.65;;
21675;SDS011;10999;51.332;9.458;2023-06-22T02:51:47;13.82;;;8.20;;
21675;SDS011;10999;51.332;9.458;2023-06-22T02:54:14;16.00;;;8.90;;
21675;SDS011;10999;51.332;9.458;2023-06-22T02:56:42;20.02;;;11.93;;
21675;SDS011;10999;51.332;9.458;2023-06-22T02:59:12;17.65;;;9.82;;
21675;SDS011;10999;51.332;9.458;2023-06-22T03:01:39;15.52;;;8.95;;
21675;SDS011;10999;51.332;9.458;2023-06-22T03:04:07;16.27;;;9.88;;
21675;SDS011;10999;51.332;9.458;2023-06-22T03:06:35;16.27;;;10.20;;
21675;SDS011;10999;51.332;9.458;2023-06-22T03:09:03;15.05;;;8.38;;
21675;SDS011;10999;51.332;9.458;2023-06-22T03:11:31;14.77;;;8.68;;
21675;SDS011;10999;51.332;9.458;2023-06-22T03:13:59;15.80;;;9.38;;
21675;SDS011;10999;51.332;9.458;2023-06-22T03:16:27;17.55;;;9.57;;
21675;SDS011;10999;51.332;9.458;2023-06-22T03:18:54;18.48;;;10.60;;
21675;SDS011;10999;51.332;9.458;2023-06-22T03:21:25;13.52;;;8.63;;
21675;SDS011;10999;51.332;9.458;2023-06-22T03:23:55;13.43;;;7.65;;
21675;SDS011;10999;51.332;9.458;2023-06-22T03:26:22;14.20;;;8.35;;
21675;SDS011;10999;51.332;9.458;2023-06-22T03:28:50;19.25;;;10.52;;
21675;SDS011;10999;51.332;9.458;2023-06-22T03:31:16;14.93;;;9.00;;
21675;SDS011;10999;51.332;9.458;2023-06-22T03:33:48;16.17;;;8.68;;
21675;SDS011;10999;51.332;9.458;2023-06-22T03:36:15;13.38;;;7.82;;
21675;SDS011;10999;51.332;9.458;2023-06-22T03:38:45;18.25;;;10.50;;
21675;SDS011;10999;51.332;9.458;2023-06-22T03:41:13;13.05;;;7.93;;
21675;SDS011;10999;51.332;9.458;2023-06-22T03:43:40;16.42;;;9.68;;
21675;SDS011;10999;51.332;9.458;2023-06-22T03:46:07;16.10;;;8.65;;
21675;SDS011;10999;51.332;9.458;2023-06-22T03:48:34;19.67;;;11.07;;
21675;SDS011;10999;51.332;9.458;2023-06-22T03:51:01;16.17;;;9.60;;
21675;SDS011;10999;51.332;9.458;2023-06-22T03:53:32;16.73;;;9.93;;
21675;SDS011;10999;51.332;9.458;2023-06-22T03:55:58;20.10;;;11.63;;
21675;SDS011;10999;51.332;9.458;2023-06-22T03:58:26;20.58;;;11.35;;
21675;SDS011;10999;51.332;9.458;2023-06-22T04:00:53;17.30;;;10.90;;
21675;SDS011;10999;51.332;9.458;2023-06-22T04:03:19;18.13;;;11.25;;
21675;SDS011;10999;51.332;9.458;2023-06-22T04:05:47;18.77;;;11.18;;
21675;SDS011;10999;51.332;9.458;2023-06-22T04:08:14;19.00;;;11.05;;
21675;SDS011;10999;51.332;9.458;2023-06-22T04:10:42;19.60;;;11.00;;
21675;SDS011;10999;51.332;9.458;2023-06-22T04:13:09;20.30;;;10.77;;
21675;SDS011;10999;51.332;9.458;2023-06-22T04:15:35;17.40;;;10.00;;
21675;SDS011;10999;51.332;9.458;2023-06-22T04:18:02;16.88;;;9.18;;
21675;SDS011;10999;51.332;9.458;2023-06-22T04:20:30;22.27;;;11.55;;
21675;SDS011;10999;51.332;9.458;2023-06-22T04:22:58;18.52;;;10.40;;
21675;SDS011;10999;51.332;9.458;2023-06-22T04:25:25;19.48;;;11.05;;
21675;SDS011;10999;51.332;9.458;2023-06-22T04:27:52;18.63;;;10.85;;
21675;SDS011;10999;51.332;9.458;2023-06-22T04:30:19;18.85;;;10.70;;
21675;SDS011;10999;51.332;9.458;2023-06-22T04:32:46;17.75;;;10.30;;
21675;SDS011;10999;51.332;9.458;2023-06-22T04:35:22;21.85;;;11.15;;
21675;SDS011;10999;51.332;9.458;2023-06-22T04:37:50;20.92;;;10.38;;
21675;SDS011;10999;51.332;9.458;2023-06-22T04:40:22;18.55;;;10.57;;
21675;SDS011;10999;51.332;9.458;2023-06-22T04:42:49;20.55;;;11.98;;
21675;SDS011;10999;51.332;9.458;2023-06-22T04:45:20;19.65;;;11.30;;
21675;SDS011;10999;51.332;9.458;2023-06-22T04:47:47;16.63;;;10.00;;
21675;SDS011;10999;51.332;9.458;2023-06-22T04:50:15;17.10;;;10.10;;
21675;SDS011;10999;51.332;9.458;2023-06-22T04:52:42;18.48;;;9.68;;
21675;SDS011;10999;51.332;9.458;2023-06-22T04:55:09;16.35;;;8.60;;
21675;SDS011;10999;51.332;9.458;2023-06-22T04:57:39;18.50;;;10.07;;
21675;SDS011;10999;51.332;9.458;2023-06-22T05:00:06;13.20;;;7.85;;
21675;SDS011;10999;51.332;9.458;2023-06-22T05:02:38;15.88;;;9.68;;
21675;SDS011;10999;51.332;9.458;2023-06-22T05:05:05;15.02;;;8.48;;
21675;SDS011;10999;51.332;9.458;2023-06-22T05:07:33;12.23;;;7.10;;
21675;SDS011;10999;51.332;9.458;2023-06-22T05:10:01;16.10;;;8.98;;
21675;SDS011;10999;51.332;9.458;2023-06-22T05:12:29;14.25;;;8.73;;
21675;SDS011;10999;51.332;9.458;2023-06-22T05:14:56;15.55;;;9.38;;
21675;SDS011;10999;51.332;9.458;2023-06-22T05:17:24;16.58;;;9.63;;
21675;SDS011;10999;51.332;9.458;2023-06-22T05:19:51;13.25;;;8.30;;
21675;SDS011;10999;51.332;9.458;2023-06-22T05:22:18;16.02;;;9.20;;
21675;SDS011;10999;51.332;9.458;2023-06-22T05:24:45;14.68;;;9.15;;
21675;SDS011;10999;51.332;9.458;2023-06-22T05:27:12;16.83;;;9.80;;
21675;SDS011;10999;51.332;9.458;2023-06-22T05:29:40;20.17;;;10.70;;
21675;SDS011;10999;51.332;9.458;2023-06-22T05:32:07;16.98;;;9.00;;
21675;SDS011;10999;51.332;9.458;2023-06-22T05:34:34;15.55;;;7.43;;
21675;SDS011;10999;51.332;9.458;2023-06-22T05:37:01;15.40;;;9.23;;
21675;SDS011;10999;51.332;9.458;2023-06-22T05:39:29;13.38;;;7.88;;
21675;SDS011;10999;51.332;9.458;2023-06-22T05:41:56;11.82;;;7.00;;
21675;SDS011;10999;51.332;9.458;2023-06-22T05:44:23;14.77;;;8.38;;
21675;SDS011;10999;51.332;9.458;2023-06-22T05:46:49;14.82;;;8.00;;
21675;SDS011;10999;51.332;9.458;2023-06-22T05:49:16;14.73;;;8.38;;
21675;SDS011;10999;51.332;9.458;2023-06-22T05:51:43;13.38;;;7.32;;
21675;SDS011;10999;51.332;9.458;2023-06-22T05:54:10;16.05;;;8.80;;
21675;SDS011;10999;51.332;9.458;2023-06-22T05:56:39;13.20;;;7.82;;
21675;SDS011;10999;51.332;9.458;2023-06-22T05:59:06;13.45;;;7.30;;
21675;SDS011;10999;51.332;9.458;2023-06-22T06:01:33;14.20;;;8.15;;
21675;SDS011;10999;51.332;9.458;2023-06-22T06:04:02;13.50;;;7.72;;
21675;SDS011;10999;51.332;9.458;2023-06-22T06:06:30;13.82;;;7.63;;
21675;SDS011;10999;51.332;9.458;2023-06-22T06:08:57;12.38;;;7.38;;
21675;SDS011;10999;51.332;9.458;2023-06-22T06:11:26;12.02;;;6.50;;
21675;SDS011;10999;51.332;9.458;2023-06-22T06:13:53;16.70;;;9.65;;
21675;SDS011;10999;51.332;9.458;2023-06-22T06:16:20;13.25;;;7.55;;
21675;SDS011;10999;51.332;9.458;2023-06-22T06:18:47;13.80;;;8.52;;
21675;SDS011;10999;51.332;9.458;2023-06-22T06:21:16;15.48;;;9.75;;
21675;SDS011;10999;51.332;9.458;2023-06-22T06:23:43;14.57;;;8.65;;
21675;SDS011;10999;51.332;9.458;2023-06-22T06:26:09;11.40;;;6.78;;
21675;SDS011;10999;51.332;9.458;2023-06-22T06:28:36;11.85;;;6.78;;
21675;SDS011;10999;51.332;9.458;2023-06-22T06:31:03;14.43;;;7.85;;
21675;SDS011;10999;51.332;9.458;2023-06-22T06:33:34;13.98;;;8.68;;
21675;SDS011;10999;51.332;9.458;2023-06-22T06:36:01;14.73;;;8.45;;
21675;SDS011;10999;51.332;9.458;2023-06-22T06:38:30;11.85;;;6.82;;
21675;SDS011;10999;51.332;9.458;2023-06-22T06:40:57;13.75;;;7.70;;
21675;SDS011;10999;51.332;9.458;2023-06-22T06:43:24;11.88;;;6.90;;
21675;SDS011;10999;51.332;9.458;2023-06-22T06:45:51;14.40;;;7.82;;
21675;SDS011;10999;51.332;9.458;2023-06-22T06:48:18;13.43;;;8.18;;
21675;SDS011;10999;51.332;9.458;2023-06-22T06:50:53;14.75;;;7.82;;
21675;SDS011;10999;51.332;9.458;2023-06-22T06:53:20;13.98;;;8.10;;
21675;SDS011;10999;51.332;9.458;2023-06-22T06:55:46;11.23;;;6.13;;
21675;SDS011;10999;51.332;9.458;2023-06-22T06:58:13;12.50;;;7.00;;
21675;SDS011;10999;51.332;9.458;2023-06-22T07:00:41;13.13;;;7.18;;
21675;SDS011;10999;51.332;9.458;2023-06-22T07:03:09;13.27;;;6.65;;
21675;SDS011;10999;51.332;9.458;2023-06-22T07:05:36;12.60;;;7.60;;
21675;SDS011;10999;51.332;9.458;2023-06-22T07:08:03;13.23;;;8.15;;
21675;SDS011;10999;51.332;9.458;2023-06-22T07:10:30;18.15;;;9.75;;
21675;SDS011;10999;51.332;9.458;2023-06-22T07:12:57;14.65;;;8.45;;
21675;SDS011;10999;51.332;9.458;2023-06-22T07:15:24;15.50;;;9.30;;
21675;SDS011;10999;51.332;9.458;2023-06-22T07:17:51;15.45;;;8.63;;
21675;SDS011;10999;51.332;9.458;2023-06-22T07:20:18;13.75;;;8.65;;
21675;SDS011;10999;51.332;9.458;2023-06-22T07:22:46;12.88;;;7.72;;
21675;SDS011;10999;51.332;9.458;2023-06-22T07:25:13;16.42;;;7.93;;
21675;SDS011;10999;51.332;9.458;2023-06-22T07:27:45;13.57;;;7.80;;
21675;SDS011;10999;51.332;9.458;2023-06-22T07:30:13;12.27;;;7.10;;
21675;SDS011;10999;51.332;9.458;2023-06-22T07:32:40;12.88;;;6.55;;
21675;SDS011;10999;51.332;9.458;2023-06-22T07:35:08;14.60;;;7.63;;
21675;SDS011;10999;51.332;9.458;2023-06-22T07:37:35;12.23;;;7.43;;
21675;SDS011;10999;51.332;9.458;2023-06-22T07:40:02;13.35;;;7.68;;
21675;SDS011;10999;51.332;9.458;2023-06-22T07:42:32;13.48;;;6.65;;
21675;SDS011;10999;51.332;9.458;2023-06-22T07:44:59;13.35;;;7.47;;
21675;SDS011;10999;51.332;9.458;2023-06-22T07:47:27;14.65;;;8.32;;
21675;SDS011;10999;51.332;9.458;2023-06-22T07:49:54;12.43;;;7.18;;
21675;SDS011;10999;51.332;9.458;2023-06-22T07:52:28;11.82;;;7.47;;
21675;SDS011;10999;51.332;9.458;2023-06-22T07:54:55;12.30;;;6.60;;
21675;SDS011;10999;51.332;9.458;2023-06-22T07:57:21;9.95;;;6.20;;
21675;SDS011;10999;51.332;9.458;2023-06-22T07:59:48;9.80;;;5.97;;
21675;SDS011;10999;51.332;9.458;2023-06-22T08:02:15;11.80;;;6.40;;
21675;SDS011;10999;51.332;9.458;2023-06-22T08:04:42;10.55;;;6.28;;
21675;SDS011;10999;51.332;9.458;2023-06-22T08:07:09;11.52;;;6.75;;
21675;SDS011;10999;51.332;9.458;2023-06-22T08:09:36;10.82;;;6.20;;
21675;SDS011;10999;51.332;9.458;2023-06-22T08:12:03;11.65;;;6.07;;
21675;SDS011;10999;51.332;9.458;2023-06-22T08:14:30;9.75;;;6.05;;
21675;SDS011;10999;51.332;9.458;2023-06-22T08:16:57;10.32;;;6.10;;
21675;SDS011;10999;51.332;9.458;2023-06-22T08:19:24;11.35;;;6.40;;
21675;SDS011;10999;51.332;9.458;2023-06-22T08:21:51;11.55;;;6.28;;
21675;SDS011;10999;51.332;9.458;2023-06-22T08:24:17;10.73;;;5.90;;
21675;SDS011;10999;51.332;9.458;2023-06-22T08:26:44;13.32;;;7.32;;
21675;SDS011;10999;51.332;9.458;2023-06-22T08:29:12;10.68;;;6.10;;
21675;SDS011;10999;51.332;9.458;2023-06-22T08:31:38;11.65;;;7.18;;
21675;SDS011;10999;51.332;9.458;2023-06-22T08:34:08;12.48;;;6.70;;
21675;SDS011;10999;51.332;9.458;2023-06-22T08:36:35;11.82;;;6.18;;
21675;SDS011;10999;51.332;9.458;2023-06-22T08:39:07;11.52;;;6.28;;
21675;SDS011;10999;51.332;9.458;2023-06-22T08:41:34;9.88;;;6.22;;
21675;SDS011;10999;51.332;9.458;2023-06-22T08:44:01;11.13;;;6.47;;
21675;SDS011;10999;51.332;9.458;2023-06-22T08:46:28;11.48;;;6.93;;
21675;SDS011;10999;51.332;9.458;2023-06-22T08:48:59;10.20;;;6.18;;
21675;SDS011;10999;51.332;9.458;2023-06-22T08:51:27;11.20;;;6.00;;
21675;SDS011;10999;51.332;9.458;2023-06-22T08:53:54;10.18;;;6.45;;
21675;SDS011;10999;51.332;9.458;2023-06-22T08:56:21;10.38;;;5.72;;
21675;SDS011;10999;51.332;9.458;2023-06-22T08:58:48;10.00;;;6.07;;
21675;SDS011;10999;51.332;9.458;2023-06-22T09:01:15;13.88;;;6.32;;
21675;SDS011;10999;51.332;9.458;2023-06-22T09:03:42;10.52;;;6.80;;
21675;SDS011;10999;51.332;9.458;2023-06-22T09:06:09;9.77;;;5.88;;
21675;SDS011;10999;51.332;9.458;2023-06-22T09:08:36;11.27;;;6.82;;
21675;SDS011;10999;51.332;9.458;2023-06-22T09:11:03;12.15;;;7.07;;
21675;SDS011;10999;51.332;9.458;2023-06-22T09:13:30;10.68;;;6.32;;
21675;SDS011;10999;51.332;9.458;2023-06-22T09:15:58;11.32;;;6.35;;
21675;SDS011;10999;51.332;9.458;2023-06-22T09:18:24;10.77;;;6.63;;
21675;SDS011;10999;51.332;9.458;2023-06-22T09:20:51;11.20;;;6.80;;
21675;SDS011;10999;51.332;9.458;2023-06-22T09:23:18;10.93;;;6.57;;
21675;SDS011;10999;51.332;9.458;2023-06-22T09:25:45;12.10;;;7.15;;
21675;SDS011;10999;51.332;9.458;2023-06-22T09:28:14;11.60;;;6.82;;
21675;SDS011;10999;51.332;9.458;2023-06-22T09:30:42;9.70;;;6.38;;
21675;SDS011;10999;51.332;9.458;2023-06-22T09:33:10;10.85;;;6.40;;
21675;SDS011;10999;51.332;9.458;2023-06-22T09:35:38;13.05;;;7.45;;
21675;SDS011;10999;51.332;9.458;2023-06-22T09:38:07;10.63;;;6.47;;
21675;SDS011;10999;51.332;9.458;2023-06-22T09:40:33;12.85;;;6.55;;
21675;SDS011;10999;51.332;9.458;2023-06-22T09:43:06;10.43;;;6.22;;
21675;SDS011;10999;51.332;9.458;2023-06-22T09:45:32;9.80;;;6.47;;
21675;SDS011;10999;51.332;9.458;2023-06-22T09:47:59;11.63;;;6.72;;
21675;SDS011;10999;51.332;9.458;2023-06-22T09:50:26;12.00;;;6.80;;
21675;SDS011;10999;51.332;9.458;2023-06-22T09:52:55;11.07;;;6.85;;
21675;SDS011;10999;51.332;9.458;2023-06-22T09:55:22;13.38;;;6.78;;
21675;SDS011;10999;51.332;9.458;2023-06-22T09:57:49;11.68;;;6.63;;
21675;SDS011;10999;51.332;9.458;2023-06-22T10:00:17;11.00;;;6.38;;
21675;SDS011;10999;51.332;9.458;2023-06-22T10:02:46;10.38;;;6.75;;
21675;SDS011;10999;51.332;9.458;2023-06-22T10:05:13;10.20;;;5.38;;
21675;SDS011;10999;51.332;9.458;2023-06-22T10:07:40;9.98;;;6.20;;
21675;SDS011;10999;51.332;9.458;2023-06-22T10:10:10;9.98;;;6.03;;
21675;SDS011;10999;51.332;9.458;2023-06-22T10:12:45;10.30;;;6.40;;
21675;SDS011;10999;51.332;9.458;2023-06-22T10:15:15;9.80;;;6.80;;
21675;SDS011;10999;51.332;9.458;2023-06-22T10:17:42;9.95;;;6.35;;
21675;SDS011;10999;51.332;9.458;2023-06-22T10:20:09;11.18;;;6.65;;
21675;SDS011;10999;51.332;9.458;2023-06-22T10:22:43;11.90;;;6.70;;
21675;SDS011;10999;51.332;9.458;2023-06-22T10:25:11;11.57;;;6.50;;
21675;SDS011;10999;51.332;9.458;2023-06-22T10:27:39;10.05;;;5.93;;
21675;SDS011;10999;51.332;9.458;2023-06-22T10:30:07;12.20;;;5.97;;
21675;SDS011;10999;51.332;9.458;2023-06-22T10:32:35;12.35;;;6.78;;
21675;SDS011;10999;51.332;9.458;2023-06-22T10:35:03;10.60;;;5.93;;
21675;SDS011;10999;51.332;9.458;2023-06-22T10:37:31;10.63;;;6.13;;
21675;SDS011;10999;51.332;9.458;2023-06-22T10:39:57;10.95;;;6.00;;
21675;SDS011;10999;51.332;9.458;2023-06-22T10:42:25;10.38;;;6.03;;
21675;SDS011;10999;51.332;9.458;2023-06-22T10:44:51;10.50;;;6.72;;
21675;SDS011;10999;51.332;9.458;2023-06-22T10:47:18;11.38;;;5.95;;
21675;SDS011;10999;51.332;9.458;2023-06-22T10:49:45;9.15;;;5.68;;
21675;SDS011;10999;51.332;9.458;2023-06-22T10:52:12;10.27;;;5.75;;
21675;SDS011;10999;51.332;9.458;2023-06-22T10:54:39;11.77;;;5.78;;
21675;SDS011;10999;51.332;9.458;2023-06-22T10:57:05;8.77;;;5.28;;
21675;SDS011;10999;51.332;9.458;2023-06-22T10:59:33;10.32;;;5.15;;
21675;SDS011;10999;51.332;9.458;2023-06-22T11:01:59;9.88;;;5.47;;
21675;SDS011;10999;51.332;9.458;2023-06-22T11:04:26;9.98;;;5.80;;
21675;SDS011;10999;51.332;9.458;2023-06-22T11:06:53;9.77;;;5.72;;
21675;SDS011;10999;51.332;9.458;2023-06-22T11:09:20;13.68;;;6.15;;
21675;SDS011;10999;51.332;9.458;2023-06-22T11:11:53;10.30;;;5.75;;
21675;SDS011;10999;51.332;9.458;2023-06-22T11:14:20;10.05;;;5.55;;
21675;SDS011;10999;51.332;9.458;2023-06-22T11:16:48;10.43;;;5.68;;
21675;SDS011;10999;51.332;9.458;2023-06-22T11:19:15;8.57;;;5.25;;
21675;SDS011;10999;51.332;9.458;2023-06-22T11:21:42;11.75;;;5.85;;
21675;SDS011;10999;51.332;9.458;2023-06-22T11:24:09;9.18;;;5.50;;
21675;SDS011;10999;51.332;9.458;2023-06-22T11:26:36;8.95;;;4.85;;
21675;SDS011;10999;51.332;9.458;2023-06-22T11:29:03;11.07;;;5.85;;
21675;SDS011;10999;51.332;9.458;2023-06-22T11:31:33;9.57;;;5.72;;
21675;SDS011;10999;51.332;9.458;2023-06-22T11:34:01;10.40;;;5.63;;
21675;SDS011;10999;51.332;9.458;2023-06-22T11:36:29;8.63;;;5.22;;
21675;SDS011;10999;51.332;9.458;2023-06-22T11:38:59;10.18;;;5.65;;
21675;SDS011;10999;51.332;9.458;2023-06-22T11:41:26;11.07;;;5.78;;
21675;SDS011;10999;51.332;9.458;2023-06-22T11:43:53;11.48;;;5.80;;
21675;SDS011;10999;51.332;9.458;2023-06-22T11:46:19;9.90;;;5.95;;
21675;SDS011;10999;51.332;9.458;2023-06-22T11:48:46;11.00;;;6.70;;
21675;SDS011;10999;51.332;9.458;2023-06-22T11:51:13;9.93;;;6.20;;
21675;SDS011;10999;51.332;9.458;2023-06-22T11:53:40;11.98;;;6.03;;
21675;SDS011;10999;51.332;9.458;2023-06-22T11:56:07;10.07;;;6.07;;
21675;SDS011;10999;51.332;9.458;2023-06-22T11:58:35;10.70;;;5.65;;
21675;SDS011;10999;51.332;9.458;2023-06-22T12:01:02;9.98;;;6.28;;
21675;SDS011;10999;51.332;9.458;2023-06-22T12:03:29;9.90;;;5.78;;
21675;SDS011;10999;51.332;9.458;2023-06-22T12:05:56;8.63;;;5.40;;
21675;SDS011;10999;51.332;9.458;2023-06-22T12:08:23;10.63;;;5.47;;
21675;SDS011;10999;51.332;9.458;2023-06-22T12:10:50;10.05;;;5.30;;
21675;SDS011;10999;51.332;9.458;2023-06-22T12:13:18;8.23;;;4.97;;
21675;SDS011;10999;51.332;9.458;2023-06-22T12:15:45;10.63;;;5.57;;
21675;SDS011;10999;51.332;9.458;2023-06-22T12:18:11;8.25;;;4.75;;
21675;SDS011;10999;51.332;9.458;2023-06-22T12:20:40;9.25;;;5.18;;
21675;SDS011;10999;51.332;9.458;2023-06-22T12:23:07;10.75;;;5.72;;
21675;SDS011;10999;51.332;9.458;2023-06-22T12:25:34;8.93;;;4.80;;
21675;SDS011;10999;51.332;9.458;2023-06-22T12:28:01;9.98;;;5.85;;
21675;SDS011;10999;51.332;9.458;2023-06-22T12:30:28;8.82;;;5.40;;
21675;SDS011;10999;51.332;9.458;2023-06-22T12:32:58;8.23;;;4.88;;
21675;SDS011;10999;51.332;9.458;2023-06-22T12:35:25;11.70;;;6.15;;
21675;SDS011;10999;51.332;9.458;2023-06-22T12:37:52;11.13;;;5.03;;
21675;SDS011;10999;51.332;9.458;2023-06-22T12:40:19;10.00;;;5.07;;
21675;SDS011;10999;51.332;9.458;2023-06-22T12:42:46;8.77;;;5.30;;
21675;SDS011;10999;51.332;9.458;2023-06-22T12:45:13;9.05;;;5.10;;
21675;SDS011;10999;51.332;9.458;2023-06-22T12:47:40;8.95;;;5.32;;
21675;SDS011;10999;51.332;9.458;2023-06-22T12:50:07;9.32;;;4.90;;
21675;SDS011;10999;51.332;9.458;2023-06-22T12:52:36;10.10;;;5.10;;
21675;SDS011;10999;51.332;9.458;2023-06-22T12:55:05;10.45;;;5.07;;
21675;SDS011;10999;51.332;9.458;2023-06-22T12:57:33;10.63;;;6.03;;
21675;SDS011;10999;51.332;9.458;2023-06-22T13:00:00;8.95;;;5.03;;
21675;SDS011;10999;51.332;9.458;2023-06-22T13:02:27;10.38;;;5.63;;
21675;SDS011;10999;51.332;9.458;2023-06-22T13:04:54;11.85;;;5.53;;
21675;SDS011;10999;51.332;9.458;2023-06-22T13:07:20;9.30;;;5.70;;
21675;SDS011;10999;51.332;9.458;2023-06-22T13:09:50;9.40;;;5.40;;
21675;SDS011;10999;51.332;9.458;2023-06-22T13:12:21;8.98;;;5.60;;
21675;SDS011;10999;51.332;9.458;2023-06-22T13:14:50;8.25;;;5.07;;
21675;SDS011;10999;51.332;9.458;2023-06-22T13:17:17;9.45;;;5.38;;
21675;SDS011;10999;51.332;9.458;2023-06-22T13:19:47;10.48;;;5.60;;
21675;SDS011;10999;51.332;9.458;2023-06-22T13:22:33;10.30;;;5.57;;
21675;SDS011;10999;51.332;9.458;2023-06-22T13:25:07;10.95;;;5.47;;
21675;SDS011;10999;51.332;9.458;2023-06-22T13:27:40;10.32;;;5.78;;
21675;SDS011;10999;51.332;9.458;2023-06-22T13:30:10;9.27;;;5.38;;
21675;SDS011;10999;51.332;9.458;2023-06-22T13:32:40;9.63;;;5.82;;
21675;SDS011;10999;51.332;9.458;2023-06-22T13:35:09;9.45;;;6.00;;
21675;SDS011;10999;51.332;9.458;2023-06-22T13:37:36;10.60;;;5.95;;
21675;SDS011;10999;51.332;9.458;2023-06-22T13:40:04;9.68;;;6.30;;
21675;SDS011;10999;51.332;9.458;2023-06-22T13:42:33;10.70;;;6.13;;
21675;SDS011;10999;51.332;9.458;2023-06-22T13:45:00;10.13;;;6.03;;
21675;SDS011;10999;51.332;9.458;2023-06-22T13:47:26;10.98;;;6.05;;
21675;SDS011;10999;51.332;9.458;2023-06-22T13:49:56;11.82;;;6.88;;
21675;SDS011;10999;51.332;9.458;2023-06-22T13:52:24;10.77;;;7.07;;
21675;SDS011;10999;51.332;9.458;2023-06-22T13:54:51;10.55;;;6.32;;
21675;SDS011;10999;51.332;9.458;2023-06-22T13:57:18;10.40;;;6.10;;
21675;SDS011;10999;51.332;9.458;2023-06-22T13:59:44;10.60;;;5.97;;
21675;SDS011;10999;51.332;9.458;2023-06-22T14:02:11;12.18;;;6.38;;
21675;SDS011;10999;51.332;9.458;2023-06-22T14:04:38;10.75;;;6.50;;
21675;SDS011;10999;51.332;9.458;2023-06-22T14:07:05;13.07;;;7.43;;
21675;SDS011;10999;51.332;9.458;2023-06-22T14:09:32;11.30;;;7.20;;
21675;SDS011;10999;51.332;9.458;2023-06-22T14:12:02;13.32;;;7.07;;
21675;SDS011;10999;51.332;9.458;2023-06-22T14:14:31;10.18;;;5.80;;
21675;SDS011;10999;51.332;9.458;2023-06-22T14:16:59;10.95;;;5.93;;
21675;SDS011;10999;51.332;9.458;2023-06-22T14:19:26;10.63;;;6.75;;
21675;SDS011;10999;51.332;9.458;2023-06-22T14:21:53;11.43;;;6.13;;
21675;SDS011;10999;51.332;9.458;2023-06-22T14:24:20;11.07;;;6.40;;
21675;SDS011;10999;51.332;9.458;2023-06-22T14:26:50;12.35;;;7.30;;
21675;SDS011;10999;51.332;9.458;2023-06-22T14:29:17;13.48;;;6.90;;
21675;SDS011;10999;51.332;9.458;2023-06-22T14:31:44;12.23;;;7.03;;
21675;SDS011;10999;51.332;9.458;2023-06-22T14:34:13;13.60;;;4.15;;
21675;SDS011;10999;51.332;9.458;2023-06-22T14:36:40;24.75;;;5.35;;
21675;SDS011;10999;51.332;9.458;2023-06-22T14:39:09;8.57;;;2.25;;
21675;SDS011;10999;51.332;9.458;2023-06-22T14:41:36;11.32;;;3.15;;
21675;SDS011;10999;51.332;9.458;2023-06-22T14:44:02;10.13;;;3.20;;